mattdh12's sites:

title views votes rating creation
?mj visits quiznos 3,088 51 (4.29)  2014-10-14
?conan news 2,296 62 (3.95)  2013-04-01
?roulette 7,888 98 (4.49)  2013-01-06
?my new text message notification sound 1,486 35 (3.77)  2012-07-22
?bob dole gets a haircut 4,226 77 (4.12)  2011-07-18
?tampa bay opening day 1,721 42 (4.29)  2011-04-12
?clock tower ringing OF THE FUTURE 3,350 38 (4.21)  2010-11-05
?record sounds: the record 1,652 34 (4.29)  2010-04-07
?winston churchill revenge part 2 - WINSTON CHU... 1,192 26 (4.35)  2009-10-24
?winston churchill revenge part 1 - WINSTON CHU... 1,670 22 (4.18)  2009-10-24
?Homeless People HATE the Super Bowl 1,310 56 (4.34)  2009-09-02
?tourney3: cone n jokes for the metal demographic 1,377 26 (4.54)  2009-07-26
?tourney3: shakespeare's forgotten last dram... 3,327 75 (4.07)  2009-07-16
?Lady Gaga - Poker Face (a Kevin Federline remix) 7,396 73 (3.96)  2009-03-22
?fight themed ytmnd for the photoshop tournament c... 1,427 44 (4.20)  2009-01-18
?(nsfw) 2008 yelling bee 4,070 170 (4.00)  2008-11-16
?mario makes a sandwich 27,038 759 (4.26)  2008-08-13
?best ytnmd ever 6,013 147 (4.49)  2008-07-14
?3:00 drinkin dat soda 1,521 45 (4.22)  2008-06-02
?(nsfw) idiot hallo"weiner" "tps&quot... 4,494 124 (3.90)  2008-05-29
?mitch hedberg "moves tha crowd" (with l... 2,131 45 (4.31)  2008-04-22
?Tiger Woods Putt To Win Arnie Palson Tourname... 5,310 61 (4.16)  2008-04-03
?"u"tube duel 2,153 99 (4.01)  2008-03-03
?work safety 5,445 217 (4.13)  2008-01-20
?shaq gives birth 10,984 335 (4.12)  2008-01-01
?guy who milks cows grabs the wrong bucket and a... 3,453 86 (4.20)  2007-12-17
?raige aganest the machines final concert [full video] ... 1,210 40 (4.13)  2007-12-09
?trebeks thanksgiving 1,375 45 (4.11)  2007-11-23
?shaq zone 34,195 980 (4.42)  2007-11-12
?Part 3: "Funny Show: The Show": Epis... 701 28 (4.21)  2007-11-05
?Part 2: "Funny Show: The Show": Epis... 702 24 (4.17)  2007-11-05
?Part 1: "Funny Show: The Show": Epis... 2,461 85 (4.21)  2007-11-05
?the patty melt song 653 21 (3.76)  2007-10-18
?Mario Gets Revenge On Neo 1,411 47 (4.06)  2007-10-15
?HOOOOOOOONK! OOOOOOOOH! 1,807 45 (4.38)  2007-10-12
?(nsfw) kramer gets the wrong script but it doesnt m... 6,235 112 (4.01)  2007-10-06
?[b](nsfw)[/b] Alternate Ending to the Hit Film "... 22,605 91 (4.15)  2007-09-21
?PART 1: BEST BEATS (i win, best cannot be BE... 639 32 (4.09)  2007-09-13
?tight 812 24 (3.83)  2007-09-08
?Sp"y": "der man" 4 IN 3-D 1,019 25 (4.28)  2007-08-25
?Your Mom ft. Dyslexia - Light My Fire [LIVE] 999 45 (3.89)  2007-08-19
?scene from ""A Jerk"" 748 29 (3.97)  2007-08-18
?doctor gets sunburned and gives sun a "taste... 3,634 156 (4.07)  2007-08-09
?bob barker as a contestant on the new price is right 6,479 80 (4.01)  2007-07-17
?captain jean luc picard plays 3D Pinball for Window... 6,123 69 (3.99)  2007-07-08
?cant brake treadmill guys stride 972 27 (3.30)  2007-07-03
?(nsfw) blank space 2,600 76 (3.99)  2007-06-29
?exciting infinite lap race 821 25 (4.04)  2007-06-12
?funky furniture 1,658 89 (3.83)  2007-06-09
?a biker jumps too far 1,301 54 (4.17)  2007-05-25
?Ending to Se7en in German (with subtitles) 1,317 33 (4.00)  2007-05-18
?carlos mencia steals from websters joke book? 3,759 36 (4.03)  2007-05-12
?a plate fight for the ages 2,596 37 (3.89)  2007-05-07
?my title was too long so i put it in the description 11,853 208 (3.88)  2007-05-06
?YTMND.dot.fce 1,143 63 (3.89)  2007-05-02
?(nsfw) jared does the 30 second version of a comm... 3,503 108 (3.97)  2007-05-01
?extreme street jumping with big daddy gramps 995 17 (3.88)  2007-04-28
?put hat on "head" 785 34 (4.15)  2007-04-11
?pizza guy performs coltrane but is blWHOAn awa... 3,757 44 (4.25)  2007-04-10
?mitch hedberg says some words but the crowd doe... 1,185 30 (3.57)  2007-04-04
?(nsfw) i get my first birdie in tiger woods 2007 and fe... 3,788 56 (4.04)  2007-04-04
?Photoshop Contest 1,827 40 (3.73)  2007-03-28
?chief (updated title, no longer says dew army in par... 939 29 (3.90)  2007-03-25
?(nsfw) customer tries to order bread but the waiter ... 2,782 37 (3.92)  2007-03-21
?We just might be trapped 890 27 (3.67)  2007-03-19
?my grandpa experiments with a snowy sandwich be... 3,004 38 (3.89)  2007-03-18
?If the Movie Speed was Realistic 1,129 37 (4.14)  2007-03-13
?Comedy General Hospital with Major Budget Cuts In... 964 31 (4.03)  2007-03-07
?Picture Time at the Library 812 35 (3.49)  2007-03-05
?I AM GOING TO SUE YOU'R CAT!!! a dra... 3,664 41 (3.39)  2007-03-04
?My Balloons and Me 1,062 39 (4.31)  2007-02-26
?Macromedia Flash Noise Tutorial 2,762 62 (3.87)  2007-02-21
?A NEW FAD SITE LOL FOR THE NEW FAD 1,144 52 (3.94)  2007-02-20
?My Favorite Kill Bill Scene 3,225 76 (4.13)  2007-02-16
?(nsfw) AAHHK 1,581 34 (4.24)  2007-02-15
?LAUGHING CLOCK NO WAY LOL NOT FAKE 1,460 39 (3.82)  2007-02-13
?Bart's Mortal Enemy 16,311 356 (3.78)  2007-02-11
?THE AXE EFFECT 824 18 (3.61)  2007-02-11
?scanimation 804 37 (4.16)  2007-02-09
?THREE MINUTE COMIXS 1,197 32 (4.06)  2007-02-07
?THE SECOND FINAL BATTLE 1,388 32 (4.09)  2007-02-06
?Popular 878 33 (4.15)  2007-02-04
?Funeral 1,756 45 (4.16)  2007-01-28
?local on the 8s? more like...local voat 5 on this ytm... 1,225 61 (3.77)  2007-01-27
?(nsfw) ATTENTION YTMND: NSFW 13,937 65 (3.92)  2007-01-21
?THE FIRST FINAL BATTLE 1,112 30 (3.93)  2007-01-21
?fresh prince of square wave 1,520 44 (3.73)  2007-01-20
?will smith says uh what woo and haha a lot 24,610 464 (4.24)  2007-01-18
?SWEET SASSY MOLASSY 1,058 36 (3.64)  2007-01-17
?three things happen: jorge plays fast money, you v... 1,480 63 (4.13)  2007-01-15
?FUNNIE BAGELS WITH ZAZAZA ADDED LOL ... 2,970 36 (3.72)  2007-01-15
?Teenage Mustard Ninja Jorge Busch and Aleksand... 1,830 84 (3.75)  2007-01-06
?The World is Flat 8,819 461 (4.33)  2007-01-03
?NEW SITCOM 1,112 25 (3.88)  2007-01-02
?PlREEEEEEEEEase. KHAN am NOOOOOOOgof... 1,090 39 (3.62)  2006-12-29
?oj simpson was GUILTY 868 22 (3.45)  2006-12-28
?these rocket balloons are perfect, what more could... 2,721 26 (4.00)  2006-12-23
?(nsfw) jon carrie atemps to billd a grand carrielition in... 4,144 135 (3.68)  2006-12-22
?some person enjoys a ytmnd of an object without a ... 1,192 40 (3.78)  2006-12-21
?test site 1,023 34 (3.94)  2006-12-20
?Trick Shot Magic 1,003 32 (3.47)  2006-12-17
?WHAT WAS I THINKING? 1,729 64 (4.23)  2006-11-29
?famly um uh feyoud 846 29 (4.00)  2006-11-28
?(nsfw) DANCING SUNGLASSES 1,377 36 (3.67)  2006-11-28
?SHE FORGOT MY WATCH 754 31 (3.90)  2006-11-27
?jon carrie plays grand carrielition sweeper but loses ... 1,657 81 (3.96)  2006-11-24
?Jared is Gaining Weight Again 7,704 300 (3.87)  2006-11-23
?Pancake Fiction (Part 2) 989 19 (3.68)  2006-11-22
?Pancake Fiction (Part 1) 1,004 18 (4.00)  2006-11-21
?i put tons of effort into this 556 23 (3.70)  2006-11-20
?Jorge busch wants to buy a grand carrielition, but v... 1,412 86 (3.47)  2006-11-19
?A Very Square YTMND 726 30 (3.27)  2006-11-18
?PS3 on ebay will retail for... 7,287 85 (3.76)  2006-11-17
?Future Crocodile-O'Brien doesn't care... 1,078 40 (3.88)  2006-11-14
?Link finds a... what the hell is that? 1,416 35 (3.63)  2006-11-14
?Conan is...A TALK SHOW HOST 1,979 54 (4.06)  2006-11-11
?the guy who plays khan gets sick so borat plays hi... 3,081 35 (3.86)  2006-11-11
?WHICH CLOCK IS REAL 11,059 300 (3.30)  2006-11-09
?MY ENTRIE #! FOR BORAT CONTEST 1,628 47 (3.68)  2006-11-08
?HUGE TRUCK CRASH 2,323 70 (4.17)  2006-11-05
?EARTHQUAKE but some fat guy is too hungry to ... 788 20 (3.65)  2006-11-03
?Dean Wave 11,858 494 (4.35)  2006-11-01
?NBA Jam Returns 3,469 87 (3.83)  2006-10-31
?COOL MUSIC VIDEO 840 23 (3.83)  2006-10-30
?test site dont vote 1,182 41 (3.80)  2006-10-29
?how to eat an air conditioner in under 62 seconds 2,320 81 (3.30)  2006-10-29
?jorge busch shoots a +5 and at the same time teach... 1,508 83 (3.94)  2006-10-27
?KHAN-KHAN DANCE 836 44 (3.11)  2006-10-24
?Skating 725 22 (3.91)  2006-10-24
?(Voated5) How to prank Jon Carrie 19,540 570 (3.75)  2006-10-22
?Jared interviews some guy 1,178 55 (3.91)  2006-10-20
?Jared is DISGUSTED by the amount of grams 2,940 136 (3.92)  2006-10-20
?What Shaq Thinks of Kobe's CD 1,599 20 (3.70)  2006-10-19
?Alligator ate my Playmobil 1,172 32 (3.75)  2006-10-17
?SO UGLY 697 21 (3.62)  2006-10-17
?mitch hedberg tells a funny joke and the audience k... 1,388 41 (3.27)  2006-10-16
?George's Answering Machine 1,510 44 (3.75)  2006-10-15
?Low Budget Movie 710 27 (3.67)  2006-10-15
?ITS A TTSRAP 944 26 (4.08)  2006-10-15
?Too Much Orange Soda 1,135 45 (3.64)  2006-10-13
?KHAAAAAAAAAAAAAAAAAAAAAAAAA... 3,189 60 (4.12)  2006-10-11
?how jared really did it 1,161 33 (3.21)  2006-10-10
?Workout 1,056 41 (3.80)  2006-10-08
?Home Alone 5 Trailer 3,690 80 (3.48)  2006-10-07
?B.W.A. - Forgot the Polend (but not the 5s) 858 47 (3.70)  2006-10-04
?These Pretzels are Making You VOAT 5 1,638 100 (3.99)  2006-10-01
?My Relaxation Page 1,315 63 (3.59)  2006-09-29
?Jump Rope 1,368 38 (3.76)  2006-09-25
?Khan Goes to the Zoo 738 28 (3.43)  2006-09-19
?polend price is rong (part 5 of 5) 2,071 94 (3.97)  2006-09-15
?jon carrie forgot polend because of football 1,427 90 (3.60)  2006-09-09
?A New Kind of Tool 1,237 24 (3.46)  2006-09-07
?Scarface (short version) 1,019 26 (3.08)  2006-09-05
?Mr. Sparkle Song 4,438 48 (3.90)  2006-09-03
?(nsfw) Poland Bulls win at the buzzer (vote 5 for fa... 1,970 83 (3.89)  2006-08-29
?We're going to Poland, PLEASE VOT... 2,493 121 (3.25)  2006-08-20
?aliens polandize the world and make you vote 5 1,279 58 (3.60)  2006-08-19
?Federline Remembered Poland 3,722 112 (4.02)  2006-08-18
?Will Smith Gets 'Jiggy' with 'It&... 1,503 47 (3.43)  2006-08-13
?ce ytmnd est français 1,016 31 (2.06)  2006-08-12
?Daddy Jackson 809 27 (3.48)  2006-08-10
?The Who feat. Arnold - Who Are You? 17,815 440 (4.07)  2006-07-28
?Hippie Phil 5,613 38 (4.24)  2006-07-28
?Saget performs on AFV 1,319 37 (3.73)  2006-07-27
?Arnold is too strong for Price is Right 18,953 410 (4.01)  2006-07-25
?Your legacy? 1,774 37 (3.76)  2006-07-16
?What's the worst that could happen? 1,191 50 (3.42)  2006-07-16
?RollerCoaster Diecoon 13,870 501 (4.16)  2006-07-13
?Heffer Has No Manners (view in ie) 1,430 28 (3.32)  2006-07-12
?Tightening up graphics is a bad job 1,975 40 (3.58)  2006-07-05
?The REAL Reason the Great Wall of China was B... 17,661 499 (4.07)  2006-07-04
?Die Hard: With a Censorship 14,760 458 (4.20)  2006-04-28
?snakes on my burger 64,217 1,960 (4.32)  2006-04-03
?E.L.: Flying Lobsters 1,377 71 (3.35)  2006-03-31
?Wheres the cake? 1,573 61 (3.30)  2006-03-18
?spy on your friends! 25,828 863 (4.22)  2006-01-15
?Conan Grew a Mustache 2,544 58 (3.55)  2006-01-07
?Will Smith Buys Cheese 4,037 74 (3.72)  2005-12-27
?BINGO BANGO BONGO 2,155 48 (3.40)  2005-12-17
?YUO KHAN DO IT 5,799 104 (3.84)  2005-12-06
?"Im black yall" 8,618 82 (3.71)  2005-11-22
?push it 3,046 48 (3.08)  2005-10-05
?no idea 1,149 44 (2.98)  2005-09-24